createdAt,value
2023-05-17T00:01:04.688Z,17.51
2023-05-17T00:02:11.204Z,17.49
2023-05-17T00:03:17.956Z,17.48
2023-05-17T00:04:24.639Z,17.46
2023-05-17T00:05:31.097Z,17.44
2023-05-17T00:06:37.511Z,17.43
2023-05-17T00:07:43.613Z,17.43
2023-05-17T00:08:49.711Z,17.43
2023-05-17T00:09:55.689Z,17.43
2023-05-17T00:11:02.273Z,17.42
2023-05-17T00:12:09.202Z,17.42
2023-05-17T00:13:15.746Z,17.41
2023-05-17T00:14:25.436Z,17.41
2023-05-17T00:15:32.224Z,17.41
2023-05-17T00:16:38.125Z,17.40
2023-05-17T00:17:44.077Z,17.40
2023-05-17T00:18:50.936Z,17.40
2023-05-17T00:19:56.867Z,17.39
2023-05-17T00:21:03.345Z,17.39
2023-05-17T00:22:09.916Z,17.38
2023-05-17T00:23:16.557Z,17.38
2023-05-17T00:24:22.896Z,17.37
2023-05-17T00:25:31.239Z,17.36
2023-05-17T00:26:37.737Z,17.35
2023-05-17T00:27:43.858Z,17.34
2023-05-17T00:28:50.659Z,17.33
2023-05-17T00:29:58.008Z,17.33
2023-05-17T00:31:04.548Z,17.32
2023-05-17T00:32:13.188Z,17.31
2023-05-17T00:33:18.334Z,17.30
2023-05-17T00:34:24.848Z,17.26
2023-05-17T00:35:30.998Z,17.25
2023-05-17T00:36:37.072Z,17.25
2023-05-17T00:37:49.462Z,17.25
2023-05-17T00:38:55.511Z,17.25
2023-05-17T00:40:01.713Z,17.25
2023-05-17T00:41:08.630Z,17.25
2023-05-17T00:42:14.990Z,17.25
2023-05-17T00:43:21.311Z,17.24
2023-05-17T00:44:27.475Z,17.23
2023-05-17T00:45:42.020Z,17.23
2023-05-17T00:46:48.606Z,17.23
2023-05-17T00:47:54.860Z,17.22
2023-05-17T00:49:01.366Z,17.21
2023-05-17T00:50:09.079Z,17.19
2023-05-17T00:51:19.599Z,17.18
2023-05-17T00:52:26.755Z,17.18
2023-05-17T00:53:36.695Z,17.19
2023-05-17T00:54:44.565Z,17.19
2023-05-17T00:55:52.385Z,17.19
2023-05-17T00:57:02.600Z,17.18
2023-05-17T00:58:09.027Z,17.18
2023-05-17T00:59:15.755Z,17.16
2023-05-17T01:00:22.840Z,17.16
2023-05-17T01:01:29.226Z,17.15
2023-05-17T01:02:35.030Z,17.13
2023-05-17T01:03:43.392Z,17.11
2023-05-17T01:04:51.579Z,17.09
2023-05-17T01:05:57.735Z,17.08
2023-05-17T01:07:03.912Z,17.07
2023-05-17T01:08:09.850Z,17.05
2023-05-17T01:09:17.468Z,17.05
2023-05-17T01:10:29.024Z,17.03
2023-05-17T01:11:48.945Z,17.02
2023-05-17T01:13:04.954Z,17.00
2023-05-17T01:14:25.997Z,16.98
2023-05-17T01:15:36.917Z,16.96
2023-05-17T01:16:53.689Z,16.93
2023-05-17T01:18:11.693Z,16.92
2023-05-17T01:19:41.895Z,16.91
2023-05-17T01:20:50.204Z,16.91
2023-05-17T01:22:11.644Z,16.90
2023-05-17T01:23:34.386Z,16.89
2023-05-17T01:24:49.881Z,16.88
2023-05-17T01:26:04.629Z,16.87
2023-05-17T01:27:14.802Z,16.85
2023-05-17T01:28:23.649Z,16.83
2023-05-17T01:29:32.983Z,16.81
2023-05-17T01:30:41.960Z,16.81
2023-05-17T01:31:49.938Z,16.83
2023-05-17T01:32:59.421Z,16.85
2023-05-17T01:34:10.566Z,16.87
2023-05-17T01:35:18.333Z,16.88
2023-05-17T01:36:24.292Z,16.88
2023-05-17T01:37:30.696Z,16.87
2023-05-17T01:38:36.677Z,16.88
2023-05-17T01:39:43.483Z,16.91
2023-05-17T01:40:56.657Z,16.94
2023-05-17T01:42:13.449Z,16.99
2023-05-17T01:43:27.838Z,17.02
2023-05-17T01:44:44.375Z,17.05
2023-05-17T01:46:06.008Z,17.07
2023-05-17T01:47:18.762Z,17.10
2023-05-17T01:48:36.250Z,17.15
2023-05-17T01:49:47.424Z,17.20
2023-05-17T01:50:56.649Z,17.25
2023-05-17T01:52:09.252Z,17.29
2023-05-17T01:53:23.867Z,17.31
2023-05-17T01:54:37.428Z,17.32
2023-05-17T01:55:53.894Z,17.34
2023-05-17T01:57:05.555Z,17.34
2023-05-17T01:58:14.806Z,17.35
2023-05-17T01:59:25.555Z,17.35
2023-05-17T02:00:32.927Z,17.33
2023-05-17T02:01:39.937Z,17.34
2023-05-17T02:02:46.546Z,17.36
2023-05-17T02:03:53.453Z,17.36
2023-05-17T02:05:01.183Z,17.36
2023-05-17T02:06:10.454Z,17.37
2023-05-17T02:07:16.724Z,17.37
2023-05-17T02:08:22.913Z,17.39
2023-05-17T02:09:28.972Z,17.40
2023-05-17T02:10:35.405Z,17.43
2023-05-17T02:11:41.917Z,17.46
2023-05-17T02:12:48.914Z,17.49
2023-05-17T02:13:59.018Z,17.50
2023-05-17T02:15:08.605Z,17.52
2023-05-17T02:16:14.886Z,17.54
2023-05-17T02:17:21.124Z,17.56
2023-05-17T02:18:27.905Z,17.56
2023-05-17T02:19:35.822Z,17.58
2023-05-17T02:20:42.725Z,17.59
2023-05-17T02:21:48.868Z,17.62
2023-05-17T02:22:55.447Z,17.65
2023-05-17T02:24:03.876Z,17.66
2023-05-17T02:25:12.349Z,17.67
2023-05-17T02:26:18.912Z,17.67
2023-05-17T02:27:24.683Z,17.66
2023-05-17T02:28:30.974Z,17.65
2023-05-17T02:29:37.084Z,17.65
2023-05-17T02:30:44.991Z,17.64
2023-05-17T02:31:53.351Z,17.62
2023-05-17T02:32:59.627Z,17.61
2023-05-17T02:34:08.534Z,17.59
2023-05-17T02:35:16.159Z,17.57
2023-05-17T02:36:22.370Z,17.53
2023-05-17T02:37:28.857Z,17.50
2023-05-17T02:38:34.902Z,17.46
2023-05-17T02:39:41.465Z,17.41
2023-05-17T02:40:48.160Z,17.35
2023-05-17T02:41:54.212Z,17.30
2023-05-17T02:43:01.045Z,17.24
2023-05-17T02:44:07.585Z,17.18
2023-05-17T02:45:14.307Z,17.12
2023-05-17T02:46:22.301Z,17.06
2023-05-17T02:47:28.636Z,17.01
2023-05-17T02:48:34.860Z,16.95
2023-05-17T02:49:43.170Z,16.89
2023-05-17T02:50:49.835Z,16.82
2023-05-17T02:51:57.459Z,16.75
2023-05-17T02:53:04.536Z,16.69
2023-05-17T02:54:11.573Z,16.63
2023-05-17T02:55:18.352Z,16.57
2023-05-17T02:56:24.601Z,16.50
2023-05-17T02:57:30.619Z,16.44
2023-05-17T02:58:37.221Z,16.39
2023-05-17T02:59:43.493Z,16.35
2023-05-17T03:00:50.459Z,16.30
2023-05-17T03:01:57.790Z,16.26
2023-05-17T03:03:04.523Z,16.20
2023-05-17T03:04:11.040Z,16.15
2023-05-17T03:05:17.616Z,16.11
2023-05-17T03:06:23.714Z,16.06
2023-05-17T03:07:29.998Z,16.02
2023-05-17T03:08:35.980Z,15.98
2023-05-17T03:09:43.983Z,15.95
2023-05-17T03:10:50.128Z,15.91
2023-05-17T03:11:56.241Z,15.89
2023-05-17T03:13:02.324Z,15.86
2023-05-17T03:14:08.063Z,15.82
2023-05-17T03:15:18.325Z,15.80
2023-05-17T03:16:24.147Z,15.77
2023-05-17T03:17:30.592Z,15.74
2023-05-17T03:18:37.124Z,15.71
2023-05-17T03:19:43.814Z,15.69
2023-05-17T03:20:49.767Z,15.66
2023-05-17T03:21:56.056Z,15.64
2023-05-17T03:23:02.106Z,15.63
2023-05-17T03:24:09.243Z,15.61
2023-05-17T03:25:15.848Z,15.59
2023-05-17T03:26:24.264Z,15.58
2023-05-17T03:27:31.146Z,15.57
2023-05-17T03:28:37.135Z,15.57
2023-05-17T03:29:43.209Z,15.56
2023-05-17T03:30:49.297Z,15.57
2023-05-17T03:31:56.487Z,15.58
2023-05-17T03:33:02.337Z,15.59
2023-05-17T03:34:08.758Z,15.60
2023-05-17T03:35:15.349Z,15.62
2023-05-17T03:36:21.518Z,15.62
2023-05-17T03:37:27.922Z,15.63
2023-05-17T03:38:34.337Z,15.65
2023-05-17T03:39:41.038Z,15.67
2023-05-17T03:40:47.232Z,15.69
2023-05-17T03:41:55.468Z,15.72
2023-05-17T03:43:04.389Z,15.74
2023-05-17T03:44:10.848Z,15.76
2023-05-17T03:45:17.507Z,15.78
2023-05-17T03:46:23.544Z,15.80
2023-05-17T03:47:29.618Z,15.82
2023-05-17T03:48:36.168Z,15.84
2023-05-17T03:49:43.569Z,15.89
2023-05-17T03:50:49.782Z,15.91
2023-05-17T03:51:56.862Z,15.95
2023-05-17T03:53:02.899Z,15.97
2023-05-17T03:54:09.402Z,16.00
2023-05-17T03:55:15.651Z,16.02
2023-05-17T03:56:21.454Z,16.05
2023-05-17T03:57:27.306Z,16.07
2023-05-17T03:58:34.506Z,16.08
2023-05-17T03:59:40.827Z,16.10
2023-05-17T04:00:46.927Z,16.12
2023-05-17T04:01:52.970Z,16.13
2023-05-17T04:02:59.959Z,16.15
2023-05-17T04:04:07.581Z,16.17
2023-05-17T04:05:14.359Z,16.20
2023-05-17T04:06:20.814Z,16.22
2023-05-17T04:07:26.821Z,16.24
2023-05-17T04:08:33.223Z,16.25
2023-05-17T04:09:39.654Z,16.26
2023-05-17T04:10:45.798Z,16.26
2023-05-17T04:11:51.967Z,16.28
2023-05-17T04:12:58.424Z,16.29
2023-05-17T04:14:07.325Z,16.30
2023-05-17T04:15:14.421Z,16.31
2023-05-17T04:16:21.191Z,16.31
2023-05-17T04:17:27.270Z,16.32
2023-05-17T04:18:36.844Z,16.32
2023-05-17T04:19:42.802Z,16.33
2023-05-17T04:20:48.674Z,16.34
2023-05-17T04:21:54.946Z,16.35
2023-05-17T04:23:02.376Z,16.35
2023-05-17T04:24:08.980Z,16.35
2023-05-17T04:25:15.218Z,16.36
2023-05-17T04:26:21.148Z,16.36
2023-05-17T04:27:28.061Z,16.37
2023-05-17T04:28:35.240Z,16.38
2023-05-17T04:29:41.594Z,16.39
2023-05-17T04:30:48.223Z,16.40
2023-05-17T04:31:54.307Z,16.42
2023-05-17T04:33:01.444Z,16.44
2023-05-17T04:34:08.406Z,16.46
2023-05-17T04:35:14.866Z,16.48
2023-05-17T04:36:20.938Z,16.50
2023-05-17T04:37:27.958Z,16.52
2023-05-17T04:38:33.658Z,16.54
2023-05-17T04:39:42.543Z,16.55
2023-05-17T04:40:48.524Z,16.58
2023-05-17T04:41:54.629Z,16.58
2023-05-17T04:43:00.811Z,16.59
2023-05-17T04:44:08.631Z,16.61
2023-05-17T04:45:19.274Z,16.62
2023-05-17T04:46:26.054Z,16.63
2023-05-17T04:47:32.198Z,16.65
2023-05-17T04:48:40.315Z,16.67
2023-05-17T04:49:46.630Z,16.69
2023-05-17T04:50:54.215Z,16.71
2023-05-17T04:52:02.498Z,16.73
2023-05-17T04:53:11.040Z,16.74
2023-05-17T04:54:18.196Z,16.77
2023-05-17T04:55:25.269Z,16.79
2023-05-17T04:56:32.574Z,16.80
2023-05-17T04:57:38.608Z,16.82
2023-05-17T04:58:44.848Z,16.83
2023-05-17T04:59:51.822Z,16.85
2023-05-17T05:00:57.900Z,16.86
2023-05-17T05:02:03.731Z,16.86
2023-05-17T05:03:10.099Z,16.86
2023-05-17T05:04:16.896Z,16.87
2023-05-17T05:05:27.782Z,16.86
2023-05-17T05:06:41.053Z,16.86
2023-05-17T05:07:49.126Z,16.87
2023-05-17T05:08:56.648Z,16.87
2023-05-17T05:10:05.033Z,16.88
2023-05-17T05:11:11.376Z,16.89
2023-05-17T05:12:19.096Z,16.90
2023-05-17T05:13:25.612Z,16.91
2023-05-17T05:14:31.767Z,16.91
2023-05-17T05:15:37.931Z,16.92
2023-05-17T05:16:44.412Z,16.93
2023-05-17T05:17:51.230Z,16.95
2023-05-17T05:18:59.724Z,16.97
2023-05-17T05:20:06.636Z,16.99
2023-05-17T05:21:12.629Z,16.98
2023-05-17T05:22:19.956Z,17.00
2023-05-17T05:23:27.125Z,17.01
2023-05-17T05:24:32.891Z,17.03
2023-05-17T05:25:40.771Z,17.06
2023-05-17T05:26:47.320Z,17.09
2023-05-17T05:27:53.437Z,17.11
2023-05-17T05:28:59.769Z,17.13
2023-05-17T05:30:09.770Z,17.15
2023-05-17T05:31:16.289Z,17.16
2023-05-17T05:32:23.571Z,17.18
2023-05-17T05:33:30.144Z,17.19
2023-05-17T05:34:36.451Z,17.21
2023-05-17T05:35:43.540Z,17.24
2023-05-17T05:36:49.734Z,17.25
2023-05-17T05:37:55.993Z,17.27
2023-05-17T05:39:03.953Z,17.28
2023-05-17T05:40:15.133Z,17.29
2023-05-17T05:41:21.756Z,17.30
2023-05-17T05:42:30.583Z,17.32
2023-05-17T05:43:37.906Z,17.33
2023-05-17T05:44:43.827Z,17.33
2023-05-17T05:45:50.624Z,17.34
2023-05-17T05:46:57.785Z,17.37
2023-05-17T05:48:05.678Z,17.40
2023-05-17T05:49:12.223Z,17.45
2023-05-17T05:50:21.354Z,17.50
2023-05-17T05:51:29.772Z,17.54
2023-05-17T05:52:35.999Z,17.58
2023-05-17T05:53:43.038Z,17.62
2023-05-17T05:54:50.045Z,17.66
2023-05-17T05:55:57.203Z,17.69
2023-05-17T05:57:04.383Z,17.72
2023-05-17T05:58:10.502Z,17.77
2023-05-17T05:59:17.291Z,17.82
2023-05-17T06:00:24.816Z,17.88
2023-05-17T06:01:30.634Z,17.93
2023-05-17T06:02:37.726Z,17.98
2023-05-17T06:03:43.792Z,18.03
2023-05-17T06:04:50.136Z,18.08
2023-05-17T06:05:57.474Z,18.13
2023-05-17T06:07:07.219Z,18.18
2023-05-17T06:08:13.822Z,18.22
2023-05-17T06:09:20.352Z,18.27
2023-05-17T06:10:27.234Z,18.31
2023-05-17T06:11:34.617Z,18.35
2023-05-17T06:12:41.311Z,18.39
2023-05-17T06:13:47.626Z,18.46
2023-05-17T06:14:54.317Z,18.50
2023-05-17T06:16:00.792Z,18.53
2023-05-17T06:17:08.756Z,18.59
2023-05-17T06:18:15.184Z,18.64
2023-05-17T06:19:21.492Z,18.69
2023-05-17T06:20:28.051Z,18.72
2023-05-17T06:21:34.742Z,18.77
2023-05-17T06:22:40.919Z,18.82
2023-05-17T06:23:46.765Z,18.86
2023-05-17T06:24:53.721Z,18.92
2023-05-17T06:26:00.424Z,18.97
2023-05-17T06:27:07.907Z,18.99
2023-05-17T06:28:14.081Z,19.02
2023-05-17T06:29:20.841Z,19.03
2023-05-17T06:30:27.777Z,19.04
2023-05-17T06:31:35.010Z,19.05
2023-05-17T06:32:43.366Z,19.06
2023-05-17T06:33:51.908Z,19.08
2023-05-17T06:34:58.942Z,19.10
2023-05-17T06:36:08.333Z,19.13
2023-05-17T06:37:14.470Z,19.15
2023-05-17T06:38:20.590Z,19.17
2023-05-17T06:39:26.865Z,19.20
2023-05-17T06:40:33.060Z,19.22
2023-05-17T06:41:39.726Z,19.20
2023-05-17T06:42:46.410Z,19.28
2023-05-17T06:43:52.812Z,19.32
2023-05-17T06:44:59.382Z,19.36
2023-05-17T06:46:06.137Z,19.38
2023-05-17T06:47:12.736Z,19.41
2023-05-17T06:48:19.175Z,19.43
2023-05-17T06:49:25.527Z,19.44
2023-05-17T06:50:33.350Z,19.46
2023-05-17T06:51:38.590Z,19.48
2023-05-17T06:52:44.482Z,19.48
2023-05-17T06:53:50.560Z,19.50
2023-05-17T06:54:56.415Z,19.54
2023-05-17T06:56:02.966Z,19.58
2023-05-17T06:57:13.677Z,19.63
2023-05-17T06:58:20.542Z,19.67
2023-05-17T06:59:26.596Z,19.72
2023-05-17T07:00:33.194Z,19.75
2023-05-17T07:01:39.912Z,19.79
2023-05-17T07:02:46.511Z,19.85
2023-05-17T07:03:54.529Z,19.91
2023-05-17T07:05:01.492Z,19.97
2023-05-17T07:06:09.131Z,20.03
2023-05-17T07:07:14.925Z,20.09
2023-05-17T07:08:21.274Z,20.17
2023-05-17T07:09:27.687Z,20.24
2023-05-17T07:10:36.120Z,20.32
2023-05-17T07:11:42.343Z,20.42
2023-05-17T07:12:49.544Z,20.51
2023-05-17T07:13:58.665Z,20.59
2023-05-17T07:15:06.071Z,20.67
2023-05-17T07:16:12.003Z,20.75
2023-05-17T07:17:18.130Z,20.84
2023-05-17T07:18:25.797Z,20.93
2023-05-17T07:19:31.843Z,21.05
2023-05-17T07:20:38.980Z,21.14
2023-05-17T07:21:46.357Z,21.24
2023-05-17T07:22:52.801Z,21.37
2023-05-17T07:24:00.181Z,21.49
2023-05-17T07:25:09.394Z,21.61
2023-05-17T07:26:15.976Z,21.75
2023-05-17T07:27:22.313Z,21.87
2023-05-17T07:28:32.779Z,21.98
2023-05-17T07:29:40.259Z,22.08
2023-05-17T07:30:48.712Z,22.17
2023-05-17T07:31:54.732Z,22.29
2023-05-17T07:33:00.898Z,22.37
2023-05-17T07:34:07.319Z,22.46
2023-05-17T07:35:14.064Z,22.54
2023-05-17T07:36:21.101Z,22.59
2023-05-17T07:37:28.087Z,22.65
2023-05-17T07:38:37.265Z,22.68
2023-05-17T07:39:43.685Z,22.69
2023-05-17T07:40:49.650Z,22.70
2023-05-17T07:41:57.625Z,22.70
2023-05-17T07:43:04.006Z,22.65
2023-05-17T07:44:10.622Z,22.63
2023-05-17T07:45:18.666Z,22.59
2023-05-17T07:46:24.684Z,22.56
2023-05-17T07:47:33.729Z,22.55
2023-05-17T07:48:42.387Z,22.54
2023-05-17T07:49:48.775Z,22.52
2023-05-17T07:50:55.051Z,22.50
2023-05-17T07:52:04.214Z,22.46
2023-05-17T07:53:16.976Z,22.47
2023-05-17T07:54:30.088Z,22.44
2023-05-17T07:55:36.422Z,22.41
2023-05-17T07:56:43.105Z,22.37
2023-05-17T07:57:49.060Z,22.33
2023-05-17T07:58:55.317Z,22.33
2023-05-17T08:00:01.583Z,22.36
2023-05-17T08:01:12.015Z,22.37
2023-05-17T08:02:17.878Z,22.38
2023-05-17T08:03:25.470Z,22.38
2023-05-17T08:04:32.960Z,22.40
2023-05-17T08:05:39.062Z,22.42
2023-05-17T08:06:48.703Z,22.45
2023-05-17T08:08:00.332Z,22.44
2023-05-17T08:09:06.574Z,22.41
2023-05-17T08:10:13.791Z,22.43
2023-05-17T08:11:19.806Z,22.41
2023-05-17T08:12:26.191Z,22.38
2023-05-17T08:13:32.650Z,22.38
2023-05-17T08:14:39.599Z,22.36
2023-05-17T08:15:48.002Z,22.34
2023-05-17T08:16:57.154Z,22.32
2023-05-17T08:18:04.813Z,22.29
2023-05-17T08:19:15.569Z,22.24
2023-05-17T08:20:22.247Z,22.17
2023-05-17T08:21:28.712Z,22.07
2023-05-17T08:22:34.906Z,22.01
2023-05-17T08:23:42.261Z,21.95
2023-05-17T08:24:49.008Z,21.88
2023-05-17T08:25:55.613Z,21.80
2023-05-17T08:27:02.624Z,21.76
2023-05-17T08:28:08.695Z,21.73
2023-05-17T08:29:14.625Z,21.69
2023-05-17T08:30:28.891Z,21.68
2023-05-17T08:31:37.075Z,21.64
2023-05-17T08:32:43.162Z,21.59
2023-05-17T08:33:48.951Z,21.54
2023-05-17T08:34:56.163Z,21.49
2023-05-17T08:36:09.401Z,21.42
2023-05-17T08:37:15.545Z,21.34
2023-05-17T08:38:21.416Z,21.28
2023-05-17T08:39:27.705Z,21.22
2023-05-17T08:40:33.612Z,21.18
2023-05-17T08:41:40.316Z,21.17
2023-05-17T08:42:46.995Z,21.17
2023-05-17T08:43:54.700Z,21.16
2023-05-17T08:45:01.070Z,21.15
2023-05-17T08:46:07.523Z,21.12
2023-05-17T08:47:26.778Z,21.09
2023-05-17T08:48:42.083Z,21.02
2023-05-17T08:49:48.501Z,21.02
2023-05-17T08:50:58.251Z,21.00
2023-05-17T08:52:10.192Z,20.96
2023-05-17T08:53:16.815Z,20.93
2023-05-17T08:54:23.525Z,20.88
2023-05-17T08:55:34.425Z,20.83
2023-05-17T08:56:46.103Z,20.83
2023-05-17T08:57:53.522Z,20.83
2023-05-17T08:59:02.278Z,20.80
2023-05-17T09:00:15.494Z,20.75
2023-05-17T09:01:25.106Z,20.68
2023-05-17T09:02:42.141Z,20.62
2023-05-17T09:03:50.261Z,20.58
2023-05-17T09:04:58.053Z,20.57
2023-05-17T09:06:06.624Z,20.57
2023-05-17T09:07:14.669Z,20.60
2023-05-17T09:08:25.548Z,20.62
2023-05-17T09:09:31.566Z,20.62
2023-05-17T09:10:37.964Z,20.62
2023-05-17T09:11:44.008Z,20.60
2023-05-17T09:12:50.833Z,20.57
2023-05-17T09:14:00.274Z,20.55
2023-05-17T09:15:19.203Z,20.53
2023-05-17T09:16:38.622Z,20.47
2023-05-17T09:17:50.914Z,20.44
2023-05-17T09:18:58.914Z,20.39
2023-05-17T09:20:09.146Z,20.36
2023-05-17T09:21:15.392Z,20.31
2023-05-17T09:22:22.402Z,20.25
2023-05-17T09:23:31.524Z,20.19
2023-05-17T09:24:41.095Z,20.13
2023-05-17T09:25:51.677Z,20.09
2023-05-17T09:27:04.309Z,20.05
2023-05-17T09:28:10.292Z,20.01
2023-05-17T09:29:19.948Z,19.98
2023-05-17T09:30:33.182Z,19.96
2023-05-17T09:31:47.392Z,19.93
2023-05-17T09:32:54.174Z,19.91
2023-05-17T09:34:04.148Z,19.92
2023-05-17T09:35:14.660Z,19.92
2023-05-17T09:36:23.278Z,19.95
2023-05-17T09:37:29.840Z,19.98
2023-05-17T09:38:36.231Z,20.00
2023-05-17T09:39:46.558Z,20.02
2023-05-17T09:40:53.954Z,20.06
2023-05-17T09:42:00.057Z,20.09
2023-05-17T09:43:07.815Z,20.13
2023-05-17T09:44:17.052Z,20.17
2023-05-17T09:45:27.104Z,20.19
2023-05-17T09:46:36.962Z,20.21
2023-05-17T09:47:43.494Z,20.20
2023-05-17T09:48:57.102Z,20.18
2023-05-17T09:50:05.058Z,20.19
2023-05-17T09:51:12.055Z,20.20
2023-05-17T09:52:21.289Z,20.23
2023-05-17T09:53:29.134Z,20.27
2023-05-17T09:54:41.388Z,20.28
2023-05-17T09:55:50.457Z,20.33
2023-05-17T09:56:59.903Z,20.38
2023-05-17T09:58:08.127Z,20.43
2023-05-17T09:59:16.230Z,20.48
2023-05-17T10:00:24.707Z,20.53
2023-05-17T10:01:32.474Z,20.57
2023-05-17T10:02:41.817Z,20.58
2023-05-17T10:03:51.534Z,20.61
2023-05-17T10:05:00.597Z,20.62
2023-05-17T10:06:16.603Z,20.63
2023-05-17T10:07:41.870Z,20.65
2023-05-17T10:08:54.373Z,20.69
2023-05-17T10:10:00.268Z,20.71
2023-05-17T10:11:10.161Z,20.68
2023-05-17T10:12:23.796Z,20.65
2023-05-17T10:13:37.952Z,20.63
2023-05-17T10:14:47.359Z,20.61
2023-05-17T10:15:55.679Z,20.58
2023-05-17T10:17:03.701Z,20.55
2023-05-17T10:18:12.154Z,20.55
2023-05-17T10:19:20.970Z,20.54
2023-05-17T10:20:28.788Z,20.52
2023-05-17T10:21:35.766Z,20.52
2023-05-17T10:22:42.664Z,20.52
2023-05-17T10:23:51.355Z,20.53
2023-05-17T10:25:00.491Z,20.53
2023-05-17T10:26:07.598Z,20.55
2023-05-17T10:27:15.860Z,20.55
2023-05-17T10:28:22.104Z,20.54
2023-05-17T10:29:31.523Z,20.53
2023-05-17T10:30:38.968Z,20.53
2023-05-17T10:31:47.204Z,20.52
2023-05-17T10:32:58.935Z,20.54
2023-05-17T10:34:09.275Z,20.59
2023-05-17T10:35:18.256Z,20.62
2023-05-17T10:36:26.348Z,20.65
2023-05-17T10:37:34.849Z,20.67
2023-05-17T10:38:43.080Z,20.70
2023-05-17T10:39:52.295Z,20.74
2023-05-17T10:40:59.350Z,20.78
2023-05-17T10:43:22.277Z,20.83
2023-05-17T10:44:31.904Z,20.87
2023-05-17T10:45:39.422Z,20.92
2023-05-17T10:46:56.601Z,20.98
2023-05-17T10:48:08.138Z,21.04
2023-05-17T10:49:14.306Z,21.06
2023-05-17T10:50:27.513Z,21.05
2023-05-17T10:51:36.481Z,21.04
2023-05-17T10:52:46.540Z,21.04
2023-05-17T10:54:12.530Z,21.05
2023-05-17T10:55:25.223Z,21.11
2023-05-17T10:56:32.173Z,21.18
2023-05-17T10:59:23.918Z,21.29
2023-05-17T11:00:34.621Z,21.35
2023-05-17T11:02:00.460Z,21.38
2023-05-17T11:03:18.086Z,21.40
2023-05-17T11:04:28.567Z,21.40
2023-05-17T11:05:35.479Z,21.38
2023-05-17T11:06:42.725Z,21.35
2023-05-17T11:07:50.317Z,21.27
2023-05-17T11:09:19.851Z,21.18
2023-05-17T11:10:26.520Z,21.01
2023-05-17T11:11:32.672Z,20.91
2023-05-17T11:12:43.117Z,20.81
2023-05-17T11:13:54.076Z,20.67
2023-05-17T11:15:00.526Z,20.55
2023-05-17T11:16:08.463Z,20.43
2023-05-17T11:17:19.683Z,20.31
2023-05-17T11:18:31.335Z,20.18
2023-05-17T11:19:49.711Z,20.04
2023-05-17T11:21:09.403Z,19.90
2023-05-17T11:22:17.525Z,19.74
2023-05-17T11:23:30.218Z,19.64
2023-05-17T11:24:39.519Z,19.54
2023-05-17T11:25:48.705Z,19.47
2023-05-17T11:26:58.195Z,19.40
2023-05-17T11:28:10.030Z,19.33
2023-05-17T11:29:18.361Z,19.25
2023-05-17T11:30:28.982Z,19.18
2023-05-17T11:31:36.932Z,19.11
2023-05-17T11:32:52.727Z,19.05
2023-05-17T11:34:02.783Z,19.01
2023-05-17T11:35:13.142Z,18.98
2023-05-17T11:36:23.659Z,18.95
2023-05-17T11:37:30.310Z,18.93
2023-05-17T11:38:37.037Z,18.92
2023-05-17T11:40:05.071Z,18.92
2023-05-17T11:41:27.079Z,18.93
2023-05-17T11:42:38.496Z,18.94
2023-05-17T11:43:49.191Z,18.94
2023-05-17T11:45:01.141Z,18.93
2023-05-17T11:46:08.232Z,18.92
2023-05-17T11:47:24.824Z,18.90
2023-05-17T11:48:32.228Z,18.88
2023-05-17T11:49:40.972Z,18.85
2023-05-17T11:50:50.158Z,18.84
2023-05-17T11:51:56.182Z,18.81
2023-05-17T11:53:04.164Z,18.79
2023-05-17T11:54:14.781Z,18.78
2023-05-17T11:55:21.498Z,18.77
2023-05-17T11:56:42.693Z,18.77
2023-05-17T11:57:53.454Z,18.79
2023-05-17T11:59:00.283Z,18.77
2023-05-17T12:00:09.901Z,18.77
2023-05-17T12:01:15.941Z,18.75
2023-05-17T12:02:32.992Z,18.71
2023-05-17T12:03:39.318Z,18.67
2023-05-17T12:04:45.119Z,18.64
2023-05-17T12:06:02.985Z,18.59
2023-05-17T12:07:11.945Z,18.53
2023-05-17T12:08:19.817Z,18.48
2023-05-17T12:09:27.032Z,18.44
2023-05-17T12:10:34.762Z,18.39
2023-05-17T12:11:44.971Z,18.35
2023-05-17T12:12:51.121Z,18.29
2023-05-17T12:13:57.031Z,18.22
2023-05-17T12:15:03.893Z,18.15
2023-05-17T12:16:17.480Z,18.10
2023-05-17T12:17:38.240Z,18.09
2023-05-17T12:18:48.038Z,18.08
2023-05-17T12:19:56.144Z,18.13
2023-05-17T12:21:03.878Z,18.19
2023-05-17T12:22:13.034Z,18.24
2023-05-17T12:23:26.695Z,18.30
2023-05-17T12:24:42.429Z,18.35
2023-05-17T12:25:48.544Z,18.36
2023-05-17T12:26:54.778Z,18.39
2023-05-17T12:29:40.189Z,18.43
2023-05-17T12:30:45.823Z,18.40
2023-05-17T12:31:54.721Z,18.41
2023-05-17T12:33:00.756Z,18.47
2023-05-17T12:34:09.848Z,18.54
2023-05-17T12:35:17.756Z,18.60
2023-05-17T12:36:25.540Z,18.65
2023-05-17T12:37:32.263Z,18.68
2023-05-17T12:38:40.027Z,18.68
2023-05-17T12:39:47.255Z,18.67
2023-05-17T12:40:53.481Z,18.65
2023-05-17T12:42:02.613Z,18.66
2023-05-17T12:43:12.864Z,18.69
2023-05-17T12:44:20.649Z,18.73
2023-05-17T12:45:26.821Z,18.76
2023-05-17T12:46:35.465Z,18.82
2023-05-17T12:47:41.493Z,18.90
2023-05-17T12:48:51.954Z,18.96
2023-05-17T12:50:00.072Z,19.03
2023-05-17T12:51:12.258Z,19.12
2023-05-17T12:52:20.624Z,19.21
2023-05-17T12:53:35.589Z,19.26
2023-05-17T12:54:43.258Z,19.27
2023-05-17T12:55:49.688Z,19.27
2023-05-17T12:56:57.338Z,19.26
2023-05-17T12:58:07.753Z,19.23
2023-05-17T12:59:21.308Z,19.20
2023-05-17T13:00:30.440Z,19.16
2023-05-17T13:01:40.008Z,19.13
2023-05-17T13:02:46.566Z,19.10
2023-05-17T13:03:53.940Z,19.07
2023-05-17T13:05:13.462Z,19.05
2023-05-17T13:06:19.999Z,19.05
2023-05-17T13:07:26.051Z,19.01
2023-05-17T13:08:32.989Z,18.94
2023-05-17T13:09:49.009Z,18.87
2023-05-17T13:11:07.116Z,18.79
2023-05-17T13:12:18.403Z,18.75
2023-05-17T13:13:24.135Z,18.76
2023-05-17T13:14:39.213Z,18.80
2023-05-17T13:15:50.193Z,18.84
2023-05-17T13:16:57.205Z,18.89
2023-05-17T13:18:16.514Z,18.93
2023-05-17T13:19:22.359Z,18.99
2023-05-17T13:20:29.272Z,19.00
2023-05-17T13:21:38.023Z,19.02
2023-05-17T13:22:48.457Z,19.05
2023-05-17T13:23:56.089Z,19.09
2023-05-17T13:25:03.323Z,19.12
2023-05-17T13:26:09.873Z,19.15
2023-05-17T13:27:17.183Z,19.18
2023-05-17T13:28:25.373Z,19.19
2023-05-17T13:29:39.490Z,19.20
2023-05-17T13:30:52.435Z,19.19
2023-05-17T13:31:59.000Z,19.18
2023-05-17T13:33:06.545Z,19.18
2023-05-17T13:34:12.734Z,19.16
2023-05-17T13:35:18.571Z,19.17
2023-05-17T13:36:25.554Z,19.18
2023-05-17T13:37:31.649Z,19.21
2023-05-17T13:38:37.687Z,19.23
2023-05-17T13:39:46.189Z,19.24
2023-05-17T13:40:52.631Z,19.23
2023-05-17T13:42:00.199Z,19.22
2023-05-17T13:43:07.955Z,19.18
2023-05-17T13:44:16.660Z,19.15
2023-05-17T13:45:24.000Z,19.11
2023-05-17T13:46:29.800Z,19.12
2023-05-17T13:47:36.121Z,19.16
2023-05-17T13:48:42.985Z,19.19
2023-05-17T13:49:49.685Z,19.24
2023-05-17T13:50:56.360Z,19.29
2023-05-17T13:52:02.207Z,19.33
2023-05-17T13:53:08.495Z,19.41
2023-05-17T13:54:14.504Z,19.49
2023-05-17T13:55:20.556Z,19.56
2023-05-17T13:56:26.955Z,19.63
2023-05-17T13:57:33.396Z,19.69
2023-05-17T13:58:39.334Z,19.75
2023-05-17T13:59:46.832Z,19.74
2023-05-17T14:00:53.984Z,19.67
2023-05-17T14:02:01.571Z,19.63
2023-05-17T14:03:07.531Z,19.60
2023-05-17T14:04:14.057Z,19.59
2023-05-17T14:05:20.294Z,19.60
2023-05-17T14:06:26.431Z,19.58
2023-05-17T14:07:32.397Z,19.59
2023-05-17T14:08:38.190Z,19.61
2023-05-17T14:09:43.989Z,19.60
2023-05-17T14:10:50.490Z,19.60
2023-05-17T14:11:57.435Z,19.61
2023-05-17T14:13:08.517Z,19.62
2023-05-17T14:14:16.737Z,19.61
2023-05-17T14:15:25.633Z,19.62
2023-05-17T14:16:33.961Z,19.63
2023-05-17T14:17:40.174Z,19.62
2023-05-17T14:18:46.481Z,19.62
2023-05-17T14:19:52.822Z,19.56
2023-05-17T14:20:59.322Z,19.50
2023-05-17T14:22:06.518Z,19.45
2023-05-17T14:23:12.472Z,19.43
2023-05-17T14:24:18.352Z,19.40
2023-05-17T14:25:25.448Z,19.37
2023-05-17T14:26:31.997Z,19.32
2023-05-17T14:27:38.449Z,19.26
2023-05-17T14:28:46.026Z,19.23
2023-05-17T14:29:52.089Z,19.21
2023-05-17T14:30:58.653Z,19.19
2023-05-17T14:32:05.695Z,19.15
2023-05-17T14:33:14.233Z,19.11
2023-05-17T14:34:19.115Z,19.09
2023-05-17T14:35:28.612Z,19.05
2023-05-17T14:36:37.412Z,19.00
2023-05-17T14:37:43.640Z,18.93
2023-05-17T14:38:50.308Z,18.85
2023-05-17T14:40:05.834Z,18.79
2023-05-17T14:41:13.865Z,18.70
2023-05-17T14:42:20.880Z,18.67
2023-05-17T14:43:27.583Z,18.61
2023-05-17T14:44:34.776Z,18.55